»·PEaware :: SKW5873 KSNA-KSFO

SKW5873 :: KSNA-KSFO

FLIGHT INFORMATION

Flight Status: Arrived
Operator:
SkyWest Airlines
More flights by this operator :: More flights under this callsign
Pilot: Anonymous 16342 (16342)
Aircraft: CANADAIR CL-600 CRJ-700
(CRJ7)
More flights by this aircraft type
Origin: KSNA John Wayne-Orange Co
United States
Destination: KSFO San Francisco Intl
United States
More flights between these airports :: More routes between these airports
Route: HHERO3 IKAYE RIZIN SPLNT STOKD SERFR SERFR3
File this flight plan on PilotEdge
Remarks:
Altitude:
(Current/Filed)
36,000ft
Speed:
(Current/Filed)
445kts
Departed: 17-May-19 03:03 PM
Arrived: 17-May-19 04:21 PM
Distance/Time
Traveled:
323nm/1:17
Distance/Time
To Go:
Arrived

Flight Plot

Page will automatically refresh every two minutes.

Flight plan parsing failed; only flown route is shown


Map Options




Map Legend


Flown Route
Filed Route
Departure Airport
Arrival Airport
Navaid (VOR, NDB)
Fix

Horizontal Profiles

Position Reports

Time Latitude Longitude Heading Altitude Ground
Speed
17-May-19 14:37 33.677529 -117.863457 119 63ft 0kts
17-May-19 14:38 33.677529 -117.863456 119 63ft 0kts
17-May-19 14:39 33.677528 -117.863455 119 63ft 0kts
17-May-19 14:40 33.677528 -117.863455 119 63ft 0kts
17-May-19 14:41 33.677528 -117.863455 119 63ft 0kts
17-May-19 14:42 33.677528 -117.863455 119 63ft 0kts
17-May-19 14:43 33.677528 -117.863455 119 63ft 0kts
17-May-19 14:44 33.677528 -117.863455 119 63ft 0kts
17-May-19 14:45 33.677528 -117.863455 119 63ft 0kts
17-May-19 14:46 33.677528 -117.863455 119 63ft 0kts
17-May-19 14:47 33.677528 -117.863455 119 63ft 0kts
17-May-19 14:48 33.677528 -117.863455 119 63ft 0kts
17-May-19 14:49 33.677528 -117.863455 119 63ft 0kts
17-May-19 14:50 33.677528 -117.863455 119 63ft 0kts
17-May-19 14:51 33.677528 -117.863455 119 63ft 0kts
17-May-19 14:52 33.677528 -117.863455 119 63ft 0kts
17-May-19 14:53 33.677759 -117.864067 90 63ft 2kts
17-May-19 14:54 33.677448 -117.864372 26 63ft 0kts
17-May-19 14:55 33.677449 -117.864371 26 63ft 0kts
17-May-19 14:56 33.677451 -117.864370 26 63ft 0kts
17-May-19 14:57 33.677452 -117.864369 26 63ft 0kts
17-May-19 14:59 33.677454 -117.864368 26 63ft 0kts
17-May-19 15:00 33.678996 -117.863391 28 63ft 10kts
17-May-19 15:01 33.680634 -117.863194 308 63ft 0kts
17-May-19 15:02 33.681346 -117.864959 250 63ft 10kts
17-May-19 15:03 33.662721 -117.877027 210 488ft 163kts
17-May-19 15:04 33.617175 -117.903695 206 2542ft 196kts
17-May-19 15:05 33.566144 -117.933749 214 5296ft 199kts
17-May-19 15:06 33.515189 -117.975114 215 7257ft 239kts
17-May-19 15:07 33.464236 -118.031535 245 9570ft 255kts
17-May-19 15:08 33.430648 -118.104130 245 12486ft 248kts
17-May-19 15:09 33.416316 -118.180657 282 14470ft 254kts
17-May-19 15:10 33.432887 -118.266730 284 16277ft 273kts
17-May-19 15:11 33.460771 -118.351877 298 18210ft 279kts
17-May-19 15:12 33.498352 -118.434021 296 20129ft 283kts
17-May-19 15:13 33.538861 -118.516387 303 21891ft 290kts
17-May-19 15:14 33.589083 -118.592740 304 23563ft 293kts
17-May-19 15:15 33.638881 -118.670854 304 25169ft 296kts
17-May-19 15:16 33.700785 -118.736052 324 26574ft 307kts
17-May-19 15:16 33.765557 -118.773615 325 27765ft 307kts
17-May-19 15:18 33.855393 -118.829710 324 28912ft 321kts
17-May-19 15:19 33.932101 -118.877291 324 31179ft 289kts
17-May-19 15:19 33.989631 -118.912990 323 32395ft 274kts
17-May-19 15:20 34.055232 -118.954057 323 33107ft 275kts
17-May-19 15:22 34.130061 -119.002348 317 33931ft 268kts
17-May-19 15:22 34.169411 -119.057638 299 34812ft 247kts
17-May-19 15:23 34.202247 -119.125101 300 35683ft 230kts
17-May-19 15:25 34.242751 -119.203271 301 35817ft 237kts
17-May-19 15:25 34.272058 -119.260113 300 36053ft 238kts
17-May-19 15:26 34.307367 -119.329005 300 36093ft 246kts
17-May-19 15:27 34.344372 -119.401320 300 36087ft 258kts
17-May-19 15:28 34.383092 -119.477159 300 36077ft 272kts
17-May-19 15:29 34.426888 -119.552569 309 36068ft 291kts
17-May-19 15:30 34.486568 -119.624249 310 36066ft 311kts
17-May-19 15:31 34.549364 -119.702004 310 36062ft 335kts
17-May-19 15:32 34.613155 -119.780725 310 36062ft 335kts
17-May-19 15:33 34.678153 -119.861239 310 36072ft 331kts
17-May-19 15:34 34.742286 -119.940828 310 36093ft 328kts
17-May-19 15:35 34.804377 -120.018007 310 36100ft 324kts
17-May-19 15:36 34.865704 -120.094402 310 36119ft 320kts
17-May-19 15:37 34.927397 -120.171499 310 36132ft 316kts
17-May-19 15:38 34.988542 -120.248059 310 36137ft 312kts
17-May-19 15:39 35.047647 -120.322227 310 36143ft 317kts
17-May-19 15:40 35.110922 -120.400036 313 36145ft 329kts
17-May-19 15:41 35.180218 -120.475478 313 36151ft 339kts
17-May-19 15:42 35.250791 -120.555126 313 36153ft 349kts
17-May-19 15:43 35.320957 -120.634238 313 36150ft 341kts
17-May-19 15:44 35.388392 -120.709873 313 36147ft 317kts
17-May-19 15:45 35.451155 -120.780893 312 36131ft 295kts
17-May-19 15:46 35.509847 -120.843104 318 36153ft 278kts
17-May-19 15:47 35.571262 -120.898221 316 36138ft 267kts
17-May-19 15:48 35.629512 -120.952421 316 36138ft 256kts
17-May-19 15:49 35.686350 -121.005411 316 35150ft 266kts
17-May-19 15:50 35.747121 -121.062335 317 33364ft 283kts
17-May-19 15:51 35.811706 -121.122680 317 31566ft 298kts
17-May-19 15:52 35.879016 -121.185888 317 29782ft 311kts
17-May-19 15:53 35.949419 -121.252237 318 27959ft 326kts
17-May-19 15:54 36.023445 -121.321787 319 26136ft 340kts
17-May-19 15:55 36.101696 -121.392542 324 24568ft 356kts
17-May-19 15:56 36.187787 -121.457163 323 23568ft 367kts
17-May-19 15:57 36.274573 -121.525696 324 22570ft 365kts
17-May-19 15:58 36.358023 -121.591068 324 21564ft 347kts
17-May-19 15:59 36.436972 -121.653253 324 20554ft 327kts
17-May-19 16:00 36.509511 -121.710208 324 20214ft 319kts
17-May-19 16:01 36.588857 -121.772862 324 19390ft 357kts
17-May-19 16:02 36.676670 -121.842436 325 18407ft 391kts
17-May-19 16:03 36.768546 -121.906045 341 17393ft 334kts
17-May-19 16:04 36.850857 -121.923829 343 15940ft 280kts
17-May-19 16:05 36.926220 -121.945839 343 13914ft 286kts
17-May-19 16:06 37.004751 -121.973245 339 11370ft 295kts
17-May-19 16:07 37.078819 -122.002612 341 9354ft 266kts
17-May-19 16:08 37.148549 -122.029792 342 8006ft 251kts
17-May-19 16:09 37.215448 -122.056058 341 7985ft 262kts
17-May-19 16:10 37.283471 -122.082647 341 7984ft 250kts
17-May-19 16:11 37.341641 -122.105794 341 7151ft 246kts
17-May-19 16:12 37.405354 -122.129569 342 5650ft 230kts
17-May-19 16:13 37.467416 -122.151447 342 4149ft 232kts
17-May-19 16:14 37.517477 -122.182659 312 3502ft 187kts
17-May-19 16:15 37.551835 -122.226024 308 2284ft 161kts
17-May-19 16:16 37.573023 -122.267886 300 2139ft 145kts
17-May-19 16:17 37.591781 -122.307652 289 1125ft 127kts
17-May-19 16:18 37.606999 -122.347007 291 318ft 121kts
17-May-19 16:19 37.620354 -122.379053 294 20ft 51kts
17-May-19 16:20 37.620561 -122.384083 280 20ft 12kts
17-May-19 16:21 37.621965 -122.387505 298 20ft 11kts
17-May-19 16:22 37.621805 -122.391365 206 20ft 11kts
17-May-19 16:23 37.619603 -122.390254 118 20ft 8kts
17-May-19 16:24 37.619930 -122.388864 26 20ft 1kts
17-May-19 16:25 37.620003 -122.388817 26 20ft 0kts
17-May-19 16:26 37.620003 -122.388817 26 20ft 0kts

Navigation Log

Ident Type
Flight plan parsing failed, navigation log unavailable